Fairlane — PBFW — position and weather

sailwx.info

Track history (hours):
 
Tides and Currents Weather Stations Pressure Air Temp Water Temp Dewpoint Dewpoint Depression Visibility Wind Speed Wind Dir Waves Ship Positions

Fairlane

Last reported at 2018-Feb-18 03:18 UTC. Time now 2018-Feb-24 09:59 UTC.
Position N 18°50' E 072°37'.

Length 111 m; beam 21 m.

Type: Cargo ship. MMSI: 245021000.

Date/timePositionNaut miles runAvg speedWind from/ knotsBaromVisibWave heightAir tempDewpointWater temp
2018-Feb-18 03:18N 18°50' E 072°37'3 9.5
2018-Feb-18 03:00N 18°50' E 072°34'611.1
2018-Feb-18 02:29N 18°44' E 072°32'611.8
2018-Feb-18 02:00N 18°39' E 072°32'713.7
2018-Feb-18 01:30N 18°32' E 072°31'713.4
2018-Feb-18 01:00N 18°25' E 072°32'713.6
2018-Feb-18 00:30N 18°18' E 072°33'4613.5
2018-Feb-17 21:07N 17°33' E 072°40'414.0
2018-Feb-17 20:52N 17°30' E 072°40'  
Track history (hours):
 
Tides and Currents Weather Stations Pressure Air Temp Water Temp Dewpoint Dewpoint Depression Visibility Wind Speed Wind Dir Waves Ship Positions

Fairlane

Last reported at 2018-Feb-18 03:18 UTC. Time now 2018-Feb-24 09:59 UTC.
Position N 18°50' E 072°37'.

Length 111 m; beam 21 m.

Type: Cargo ship. MMSI: 245021000.

Date/timePositionNaut miles runAvg speedWind from/ knotsBaromVisibWave heightAir tempDewpointWater temp
2018-Feb-18 03:18N 18°50' E 072°37'3 9.5
2018-Feb-18 03:00N 18°50' E 072°34'611.1
2018-Feb-18 02:29N 18°44' E 072°32'611.8
2018-Feb-18 02:00N 18°39' E 072°32'713.7
2018-Feb-18 01:30N 18°32' E 072°31'713.4
2018-Feb-18 01:00N 18°25' E 072°32'713.6
2018-Feb-18 00:30N 18°18' E 072°33'4613.5
2018-Feb-17 21:07N 17°33' E 072°40'414.0
2018-Feb-17 20:52N 17°30' E 072°40'  

Dump ship's entire track history